Barton, New York
Current Conditions -  °F | °C
As of 3:53 PM on Wednesday 17 Dec 2014 (Local Time) from KELM Reporting Station
Overcast Overcast  
Wind Chill:   Ceiling: 3500
Heat Index:   Visibility: 10mi
Dew Point: -2°   Wind: 14mph
Humidity: 65%   Direction: 260°W
Pressure: 29.88"   Gusts: NA
Location:  42.04°N, 76.45°W
Report Text: KELM 172053Z 26012KT 10SM OVC035 04/M02 A2988 RMK AO2 SLP126 60000 T00441017 53009
Loading
Personal Weather Stations






























Interactive Weather Map New forecast layout! Learn more

10-Day Weather Forecast

Advertisements
Track Severe Weather on mobile